Black Mesa, Arizona
Current Conditions -  °F | °C
As of 6:15 PM on Monday 20 Oct 2014 (Local Time) from KBDG Reporting Station
Clear Clear  
Wind Chill: 67°   Ceiling: Unl
Heat Index: 67°   Visibility: 10mi
Dew Point: 38°   Wind: 6mph
Humidity: 34%   Direction: 180°S
Pressure: 30.17"   Gusts: NA
Location:  36.6859°N, 110.268°W
Report Text: KBDG 210015Z AUTO 18005KT 10SM CLR 19/03 A3017 RMK AO1 T01920031
Loading
Personal Weather Stations






























Interactive Weather Map
Tropical Storm Tracking
New forecast layout! Learn more

10-Day Weather Forecast

Advertisements
Track Severe Weather on mobile